createdAt,value
2019-06-01T00:00:17.520Z,9.35
2019-06-01T00:02:54.427Z,9.15
2019-06-01T00:05:16.144Z,8.90
2019-06-01T00:07:44.896Z,9.58
2019-06-01T00:10:13.710Z,9.20
2019-06-01T00:12:43.262Z,8.80
2019-06-01T00:15:12.498Z,9.03
2019-06-01T00:17:41.883Z,9.85
2019-06-01T00:20:10.449Z,9.45
2019-06-01T00:22:38.899Z,9.13
2019-06-01T00:25:07.416Z,9.48
2019-06-01T00:27:35.857Z,9.85
2019-06-01T00:30:07.129Z,9.25
2019-06-01T00:32:35.578Z,8.35
2019-06-01T00:35:06.469Z,8.73
2019-06-01T00:37:34.955Z,8.80
2019-06-01T00:40:04.740Z,8.75
2019-06-01T00:42:33.173Z,8.55
2019-06-01T00:45:01.732Z,8.70
2019-06-01T00:47:30.221Z,8.65
2019-06-01T00:49:58.675Z,9.53
2019-06-01T00:52:27.105Z,8.95
2019-06-01T00:54:55.557Z,8.68
2019-06-01T00:57:24.005Z,8.95
2019-06-01T00:59:53.678Z,8.65
2019-06-01T01:02:22.647Z,8.43
2019-06-01T01:04:59.960Z,8.10
2019-06-01T01:07:28.392Z,8.35
2019-06-01T01:09:56.837Z,9.38
2019-06-01T01:12:25.268Z,8.93
2019-06-01T01:14:53.723Z,8.70
2019-06-01T01:17:22.157Z,8.90
2019-06-01T01:19:51.877Z,9.58
2019-06-01T01:22:20.616Z,8.95
2019-06-01T01:24:50.408Z,9.13
2019-06-01T01:27:19.076Z,9.30
2019-06-01T01:29:48.962Z,9.00
2019-06-01T01:32:17.740Z,9.20
2019-06-01T01:34:47.346Z,9.40
2019-06-01T01:37:15.941Z,10.25
2019-06-01T01:39:44.440Z,8.40
2019-06-01T01:42:13.128Z,9.10
2019-06-01T01:44:41.583Z,8.38
2019-06-01T01:47:10.028Z,9.88
2019-06-01T01:49:38.462Z,9.20
2019-06-01T01:52:06.901Z,9.33
2019-06-01T01:54:35.349Z,9.03
2019-06-01T01:57:07.048Z,9.15
2019-06-01T01:59:33.927Z,9.25
2019-06-01T02:02:02.922Z,8.83
2019-06-01T02:04:31.584Z,9.18
2019-06-01T02:07:00.382Z,9.48
2019-06-01T02:09:28.925Z,8.75
2019-06-01T02:11:57.709Z,9.30
2019-06-01T02:14:26.277Z,9.43
2019-06-01T02:16:56.136Z,9.28
2019-06-01T02:19:24.822Z,8.88
2019-06-01T02:21:54.383Z,9.08
2019-06-01T02:24:22.968Z,8.85
2019-06-01T02:26:52.911Z,9.40
2019-06-01T02:29:21.635Z,9.10
2019-06-01T02:31:50.064Z,9.25
2019-06-01T02:34:18.510Z,8.40
2019-06-01T02:36:47.010Z,8.18
2019-06-01T02:39:16.203Z,8.43
2019-06-01T02:41:44.817Z,8.10
2019-06-01T02:44:13.232Z,8.10
2019-06-01T02:46:41.688Z,8.43
2019-06-01T02:49:10.101Z,8.30
2019-06-01T02:51:38.535Z,8.75
2019-06-01T02:54:06.969Z,8.20
2019-06-01T02:56:35.417Z,8.28
2019-06-01T02:59:04.447Z,8.65
2019-06-01T03:01:37.783Z,8.45
2019-06-01T03:04:10.878Z,7.85
2019-06-01T03:06:41.998Z,8.53
2019-06-01T03:09:11.125Z,8.28
2019-06-01T03:11:40.902Z,8.05
2019-06-01T03:14:11.265Z,7.65
2019-06-01T03:16:41.351Z,7.97
2019-06-01T03:19:09.917Z,7.72
2019-06-01T03:21:38.431Z,9.00
2019-06-01T03:24:13.297Z,8.83
2019-06-01T03:26:44.553Z,8.58
2019-06-01T03:29:16.161Z,8.63
2019-06-01T03:31:44.728Z,8.50
2019-06-01T03:34:14.093Z,8.18
2019-06-01T03:36:43.463Z,7.78
2019-06-01T03:39:13.068Z,8.38
2019-06-01T03:41:42.148Z,8.43
2019-06-01T03:44:10.587Z,8.83
2019-06-01T03:46:39.012Z,8.93
2019-06-01T03:49:07.722Z,9.33
2019-06-01T03:51:36.262Z,9.00
2019-06-01T03:54:06.405Z,9.03
2019-06-01T03:56:35.121Z,8.98
2019-06-01T03:59:03.616Z,8.33
2019-06-01T04:01:32.052Z,8.25
2019-06-01T04:04:00.919Z,9.33
2019-06-01T04:06:29.591Z,9.63
2019-06-01T04:08:58.016Z,9.48
2019-06-01T04:11:26.454Z,8.55
2019-06-01T04:13:54.875Z,9.93
2019-06-01T04:16:23.340Z,9.05
2019-06-01T04:18:51.769Z,8.70
2019-06-01T04:21:20.208Z,9.10
2019-06-01T04:23:48.638Z,9.05
2019-06-01T04:26:17.075Z,9.25
2019-06-01T04:28:45.500Z,8.68
2019-06-01T04:31:13.999Z,8.98
2019-06-01T04:33:42.431Z,9.38
2019-06-01T04:36:11.001Z,8.38
2019-06-01T04:38:39.468Z,8.43
2019-06-01T04:41:07.904Z,8.38
2019-06-01T04:43:36.404Z,8.95
2019-06-01T04:46:06.044Z,9.15
2019-06-01T04:48:34.656Z,8.30
2019-06-01T04:51:03.131Z,9.05
2019-06-01T04:53:31.587Z,8.95
2019-06-01T04:56:00.028Z,8.78
2019-06-01T04:58:28.467Z,8.93
2019-06-01T05:00:57.229Z,8.90
2019-06-01T05:03:25.701Z,9.08
2019-06-01T05:05:54.133Z,8.80
2019-06-01T05:08:22.559Z,8.50
2019-06-01T05:10:50.987Z,8.50
2019-06-01T05:13:19.427Z,7.47
2019-06-01T05:15:47.851Z,8.08
2019-06-01T05:18:19.594Z,7.97
2019-06-01T05:20:48.088Z,7.37
2019-06-01T05:23:16.950Z,7.42
2019-06-01T05:25:45.513Z,6.40
2019-06-01T05:28:15.219Z,6.70
2019-06-01T05:30:43.833Z,6.55
2019-06-01T05:33:25.700Z,6.45
2019-06-01T05:35:42.419Z,6.12
2019-06-01T05:38:12.138Z,6.17
2019-06-01T05:40:49.671Z,5.50
2019-06-01T05:43:21.099Z,6.87
2019-06-01T05:45:48.287Z,6.47
2019-06-01T05:48:24.809Z,7.25
2019-06-01T05:50:48.032Z,6.00
2019-06-01T05:53:16.727Z,6.80
2019-06-01T05:55:45.267Z,6.80
2019-06-01T05:58:14.989Z,6.72
2019-06-01T06:00:45.149Z,6.83
2019-06-01T06:03:16.028Z,6.42
2019-06-01T06:05:43.760Z,5.85
2019-06-01T06:08:12.698Z,5.70
2019-06-01T06:10:42.484Z,6.35
2019-06-01T06:13:11.188Z,5.30
2019-06-01T06:15:39.631Z,5.95
2019-06-01T06:18:08.068Z,5.20
2019-06-01T06:20:36.502Z,5.50
2019-06-01T06:23:04.942Z,5.62
2019-06-01T06:25:35.617Z,5.42
2019-06-01T06:28:03.768Z,8.10
2019-06-01T06:30:32.199Z,5.33
2019-06-01T06:33:00.625Z,5.55
2019-06-01T06:35:29.065Z,4.92
2019-06-01T06:37:57.495Z,5.45
2019-06-01T06:40:26.006Z,5.20
2019-06-01T06:42:54.432Z,4.80
2019-06-01T06:45:22.929Z,5.00
2019-06-01T06:47:51.369Z,4.75
2019-06-01T06:50:19.812Z,4.80
2019-06-01T06:52:48.305Z,5.25
2019-06-01T06:55:17.721Z,5.53
2019-06-01T06:57:46.349Z,5.20
2019-06-01T07:00:14.779Z,4.53
2019-06-01T07:02:43.200Z,5.25
2019-06-01T07:05:11.767Z,4.80
2019-06-01T07:07:41.740Z,4.37
2019-06-01T07:10:10.329Z,4.33
2019-06-01T07:12:38.736Z,4.47
2019-06-01T07:15:07.516Z,4.60
2019-06-01T07:17:35.948Z,4.83
2019-06-01T07:20:06.238Z,4.67
2019-06-01T07:22:34.730Z,4.35
2019-06-01T07:25:04.180Z,5.65
2019-06-01T07:27:32.608Z,4.80
2019-06-01T07:30:01.092Z,4.70
2019-06-01T07:32:29.572Z,4.10
2019-06-01T07:35:00.959Z,4.28
2019-06-01T07:37:28.546Z,4.70
2019-06-01T07:39:57.183Z,4.00
2019-06-01T07:42:26.627Z,4.35
2019-06-01T07:44:56.020Z,4.10
2019-06-01T07:47:25.005Z,5.10
2019-06-01T07:49:53.557Z,4.17
2019-06-01T07:52:22.407Z,4.15
2019-06-01T07:54:50.895Z,4.03
2019-06-01T07:57:19.336Z,4.17
2019-06-01T07:59:47.760Z,3.90
2019-06-01T08:02:16.462Z,3.98
2019-06-01T08:04:53.400Z,3.55
2019-06-01T08:07:15.069Z,3.55
2019-06-01T08:09:43.483Z,3.50
2019-06-01T08:12:11.917Z,3.65
2019-06-01T08:14:40.367Z,3.40
2019-06-01T08:17:08.796Z,3.37
2019-06-01T08:19:37.221Z,2.65
2019-06-01T08:22:05.795Z,2.50
2019-06-01T08:24:34.336Z,2.45
2019-06-01T08:27:02.766Z,2.77
2019-06-01T08:29:31.210Z,3.10
2019-06-01T08:31:59.628Z,3.10
2019-06-01T08:34:29.006Z,2.70
2019-06-01T08:36:57.587Z,2.35
2019-06-01T08:39:27.272Z,2.60
2019-06-01T08:41:55.911Z,2.70
2019-06-01T08:44:25.356Z,2.87
2019-06-01T08:46:53.960Z,2.92
2019-06-01T08:49:23.793Z,7.22
2019-06-01T08:51:52.496Z,3.72
2019-06-01T08:54:20.921Z,4.00
2019-06-01T08:56:49.358Z,2.98
2019-06-01T08:59:17.782Z,2.92
2019-06-01T09:01:46.211Z,2.67
2019-06-01T09:04:14.646Z,2.72
2019-06-01T09:06:43.095Z,2.85
2019-06-01T09:09:12.004Z,2.45
2019-06-01T09:11:40.675Z,2.17
2019-06-01T09:14:09.111Z,3.10
2019-06-01T09:16:37.531Z,2.30
2019-06-01T09:19:05.974Z,3.02
2019-06-01T09:21:35.629Z,2.60
2019-06-01T09:24:04.692Z,2.90
2019-06-01T09:26:33.837Z,2.55
2019-06-01T09:29:02.343Z,2.75
2019-06-01T09:31:32.266Z,2.60
2019-06-01T09:34:01.011Z,2.67
2019-06-01T09:36:30.379Z,2.87
2019-06-01T09:38:58.995Z,2.42
2019-06-01T09:41:28.330Z,2.70
2019-06-01T09:43:56.949Z,2.47
2019-06-01T09:46:25.367Z,2.22
2019-06-01T09:48:53.808Z,2.40
2019-06-01T09:51:22.242Z,2.00
2019-06-01T09:53:50.735Z,2.12
2019-06-01T09:56:19.182Z,2.60
2019-06-01T09:58:47.924Z,2.50
2019-06-01T10:01:16.356Z,3.10
2019-06-01T10:03:44.809Z,2.22
2019-06-01T10:06:14.333Z,2.20
2019-06-01T10:08:43.008Z,2.12
2019-06-01T10:11:11.436Z,1.85
2019-06-01T10:13:39.879Z,2.30
2019-06-01T10:16:08.305Z,2.00
2019-06-01T10:18:37.043Z,2.42
2019-06-01T10:21:05.543Z,2.00
2019-06-01T10:23:34.476Z,2.10
2019-06-01T10:26:03.268Z,1.80
2019-06-01T10:28:31.805Z,2.40
2019-06-01T10:31:00.230Z,2.00
2019-06-01T10:33:28.669Z,2.17
2019-06-01T10:35:57.097Z,1.92
2019-06-01T10:38:25.528Z,1.80
2019-06-01T10:40:53.957Z,1.82
2019-06-01T10:43:22.392Z,1.72
2019-06-01T10:45:50.815Z,1.72
2019-06-01T10:48:19.248Z,1.90
2019-06-01T10:50:47.680Z,2.33
2019-06-01T10:53:16.115Z,2.20
2019-06-01T10:55:45.289Z,2.20
2019-06-01T10:58:13.728Z,1.87
2019-06-01T11:00:49.485Z,1.82
2019-06-01T11:03:12.328Z,1.80
2019-06-01T11:05:40.904Z,2.02
2019-06-01T11:08:09.354Z,2.20
2019-06-01T11:10:38.840Z,1.75
2019-06-01T11:13:07.487Z,1.95
2019-06-01T11:15:36.946Z,1.77
2019-06-01T11:18:05.503Z,1.90
2019-06-01T11:20:35.102Z,2.00
2019-06-01T11:23:03.652Z,1.90
2019-06-01T11:25:33.365Z,1.72
2019-06-01T11:28:01.956Z,1.87
2019-06-01T11:30:30.406Z,1.80
2019-06-01T11:32:58.859Z,1.67
2019-06-01T11:35:27.345Z,1.85
2019-06-01T11:37:55.763Z,2.12
2019-06-01T11:40:24.200Z,1.85
2019-06-01T11:42:52.622Z,1.77
2019-06-01T11:45:21.063Z,1.80
2019-06-01T11:47:49.485Z,2.15
2019-06-01T11:50:17.925Z,2.00
2019-06-01T11:52:46.348Z,2.00
2019-06-01T11:55:14.925Z,1.70
2019-06-01T11:57:43.540Z,1.67
2019-06-01T12:00:13.596Z,1.92
2019-06-01T12:02:42.031Z,2.30
2019-06-01T12:05:11.588Z,2.05
2019-06-01T12:07:40.055Z,2.20
2019-06-01T12:10:08.974Z,1.90
2019-06-01T12:12:38.286Z,2.10
2019-06-01T12:15:08.623Z,2.08
2019-06-01T12:17:38.570Z,1.98
2019-06-01T12:20:08.101Z,2.08
2019-06-01T12:22:36.765Z,2.22
2019-06-01T12:25:05.973Z,2.08
2019-06-01T12:27:34.405Z,1.90
2019-06-01T12:30:03.518Z,2.10
2019-06-01T12:32:31.938Z,2.33
2019-06-01T12:35:03.179Z,2.20
2019-06-01T12:37:45.611Z,3.33
2019-06-01T12:40:00.685Z,2.85
2019-06-01T12:42:29.144Z,2.15
2019-06-01T12:44:57.626Z,2.37
2019-06-01T12:47:26.484Z,2.47
2019-06-01T12:49:54.916Z,2.55
2019-06-01T12:52:23.341Z,2.70
2019-06-01T12:54:53.004Z,3.15
2019-06-01T12:57:21.680Z,3.25
2019-06-01T12:59:51.230Z,3.65
2019-06-01T13:02:19.821Z,3.33
2019-06-01T13:04:49.109Z,3.22
2019-06-01T13:07:17.832Z,3.50
2019-06-01T13:09:46.325Z,3.10
2019-06-01T13:12:14.781Z,3.10
2019-06-01T13:14:43.265Z,2.80
2019-06-01T13:17:11.717Z,2.70
2019-06-01T13:19:41.281Z,2.70
2019-06-01T13:22:09.861Z,2.50
2019-06-01T13:24:38.354Z,2.80
2019-06-01T13:27:06.788Z,3.05
2019-06-01T13:29:35.221Z,2.85
2019-06-01T13:32:04.032Z,3.00
2019-06-01T13:34:34.170Z,2.92
2019-06-01T13:37:02.604Z,3.10
2019-06-01T13:39:31.032Z,3.20
2019-06-01T13:41:59.535Z,3.00
2019-06-01T13:44:27.963Z,2.75
2019-06-01T13:46:56.485Z,2.20
2019-06-01T13:49:24.901Z,2.12
2019-06-01T13:51:54.563Z,2.70
2019-06-01T13:54:23.138Z,2.70
2019-06-01T13:56:52.903Z,2.92
2019-06-01T13:59:21.585Z,3.12
2019-06-01T14:01:51.372Z,2.60
2019-06-01T14:04:19.958Z,2.60
2019-06-01T14:06:49.022Z,3.17
2019-06-01T14:09:17.516Z,3.27
2019-06-01T14:11:47.260Z,3.50
2019-06-01T14:14:15.887Z,3.65
2019-06-01T14:16:45.461Z,3.92
2019-06-01T14:19:14.227Z,4.08
2019-06-01T14:21:42.673Z,3.17
2019-06-01T14:24:11.105Z,2.72
2019-06-01T14:26:39.541Z,2.92
2019-06-01T14:29:07.970Z,2.80
2019-06-01T14:31:36.423Z,3.15
2019-06-01T14:34:05.226Z,3.58
2019-06-01T14:36:33.666Z,3.37
2019-06-01T14:39:02.106Z,3.90
2019-06-01T14:41:30.548Z,4.40
2019-06-01T14:43:58.986Z,5.10
2019-06-01T14:46:27.416Z,6.00
2019-06-01T14:48:55.894Z,5.20
2019-06-01T14:51:24.360Z,5.08
2019-06-01T14:53:53.712Z,5.33
2019-06-01T14:56:22.351Z,4.40
2019-06-01T14:58:51.847Z,4.50
2019-06-01T15:01:31.828Z,5.10
2019-06-01T15:03:50.754Z,6.12
2019-06-01T15:06:20.801Z,6.60
2019-06-01T15:09:07.694Z,6.53
2019-06-01T15:11:19.697Z,4.80
2019-06-01T15:13:48.300Z,4.90
2019-06-01T15:16:16.730Z,4.83
2019-06-01T15:18:45.171Z,4.45
2019-06-01T15:21:13.608Z,4.78
2019-06-01T15:23:42.058Z,4.70
2019-06-01T15:26:10.548Z,4.75
2019-06-01T15:28:39.001Z,5.20
2019-06-01T15:31:07.432Z,5.35
2019-06-01T15:33:35.892Z,5.15
2019-06-01T15:36:04.387Z,4.30
2019-06-01T15:38:32.846Z,4.15
2019-06-01T15:41:02.391Z,4.12
2019-06-01T15:43:30.985Z,3.75
2019-06-01T15:45:59.835Z,3.58
2019-06-01T15:48:28.700Z,3.55
2019-06-01T15:51:01.365Z,2.80
2019-06-01T15:53:27.305Z,2.50
2019-06-01T15:55:56.588Z,2.40
2019-06-01T15:58:25.068Z,2.20
2019-06-01T16:00:54.901Z,2.35
2019-06-01T16:03:23.499Z,2.08
2019-06-01T16:05:53.034Z,2.00
2019-06-01T16:08:21.541Z,2.20
2019-06-01T16:10:49.980Z,2.10
2019-06-01T16:13:18.442Z,2.15
2019-06-01T16:15:46.878Z,2.50
2019-06-01T16:18:15.329Z,2.00
2019-06-01T16:20:43.776Z,2.47
2019-06-01T16:23:12.226Z,2.10
2019-06-01T16:25:40.650Z,2.47
2019-06-01T16:28:09.105Z,2.40
2019-06-01T16:30:37.525Z,2.15
2019-06-01T16:33:05.975Z,2.33
2019-06-01T16:35:34.400Z,2.00
2019-06-01T16:38:04.075Z,2.37
2019-06-01T16:40:32.977Z,2.17
2019-06-01T16:43:01.624Z,1.92
2019-06-01T16:45:30.132Z,1.90
2019-06-01T16:47:59.482Z,1.85
2019-06-01T16:50:28.084Z,2.00
2019-06-01T16:52:57.805Z,1.82
2019-06-01T16:55:26.426Z,1.72
2019-06-01T16:57:54.905Z,2.15
2019-06-01T17:00:23.406Z,1.90
2019-06-01T17:02:51.840Z,1.80
2019-06-01T17:05:20.288Z,2.00
2019-06-01T17:07:48.751Z,2.05
2019-06-01T17:10:26.106Z,2.47
2019-06-01T17:12:48.381Z,2.10
2019-06-01T17:15:17.885Z,1.80
2019-06-01T17:17:46.320Z,2.12
2019-06-01T17:20:43.212Z,2.15
2019-06-01T17:23:25.887Z,2.02
2019-06-01T17:25:41.919Z,2.20
2019-06-01T17:28:10.512Z,2.10
2019-06-01T17:30:39.063Z,2.27
2019-06-01T17:33:08.562Z,1.75
2019-06-01T17:35:37.297Z,2.12
2019-06-01T17:38:07.275Z,2.70
2019-06-01T17:40:39.742Z,2.47
2019-06-01T17:43:06.990Z,2.02
2019-06-01T17:45:35.560Z,1.92
2019-06-01T17:48:19.419Z,2.67
2019-06-01T17:50:34.980Z,2.22
2019-06-01T17:53:04.562Z,2.17
2019-06-01T17:55:34.973Z,2.55
2019-06-01T17:58:05.662Z,2.47
2019-06-01T18:00:34.282Z,2.20
2019-06-01T18:03:03.611Z,2.00
2019-06-01T18:05:32.262Z,1.85
2019-06-01T18:08:01.836Z,2.20
2019-06-01T18:10:30.576Z,1.90
2019-06-01T18:12:59.027Z,1.90
2019-06-01T18:15:27.478Z,2.02
2019-06-01T18:17:55.930Z,2.08
2019-06-01T18:20:24.377Z,2.20
2019-06-01T18:22:52.813Z,2.10
2019-06-01T18:25:43.563Z,2.40
2019-06-01T18:28:17.130Z,2.70
2019-06-01T18:30:42.276Z,2.42
2019-06-01T18:33:11.175Z,2.20
2019-06-01T18:35:39.841Z,1.92
2019-06-01T18:38:08.259Z,2.50
2019-06-01T18:40:36.784Z,2.50
2019-06-01T18:43:08.679Z,2.50
2019-06-01T18:45:38.512Z,2.60
2019-06-01T18:48:08.172Z,2.35
2019-06-01T18:50:36.888Z,2.52
2019-06-01T18:53:06.058Z,2.60
2019-06-01T18:55:35.806Z,2.70
2019-06-01T18:58:06.321Z,2.70
2019-06-01T19:00:39.398Z,3.00
2019-06-01T19:03:06.811Z,3.00
2019-06-01T19:05:35.624Z,2.70
2019-06-01T19:08:05.133Z,3.02
2019-06-01T19:10:33.822Z,2.75
2019-06-01T19:13:02.392Z,3.22
2019-06-01T19:15:30.822Z,3.47
2019-06-01T19:17:59.257Z,3.05
2019-06-01T19:20:27.711Z,2.42
2019-06-01T19:22:56.160Z,2.77
2019-06-01T19:25:24.945Z,2.80
2019-06-01T19:27:53.459Z,2.60
2019-06-01T19:30:33.836Z,2.45
2019-06-01T19:33:02.302Z,2.70
2019-06-01T19:35:31.611Z,2.90
2019-06-01T19:38:01.899Z,2.62
2019-06-01T19:40:37.954Z,2.62
2019-06-01T19:43:07.410Z,2.92
2019-06-01T19:45:36.099Z,2.45
2019-06-01T19:48:06.241Z,2.77
2019-06-01T19:50:34.727Z,2.40
2019-06-01T19:53:03.203Z,2.62
2019-06-01T19:55:31.679Z,2.67
2019-06-01T19:58:00.128Z,3.10
2019-06-01T20:00:28.548Z,2.70
2019-06-01T20:02:56.984Z,2.98
2019-06-01T20:05:25.480Z,2.95
2019-06-01T20:07:53.912Z,2.83
2019-06-01T20:10:22.653Z,2.70
2019-06-01T20:12:51.170Z,2.90
2019-06-01T20:15:19.707Z,2.87
2019-06-01T20:17:48.272Z,3.10
2019-06-01T20:20:19.619Z,3.30
2019-06-01T20:22:48.329Z,3.98
2019-06-01T20:25:17.565Z,3.70
2019-06-01T20:27:46.164Z,4.60
2019-06-01T20:30:15.796Z,4.20
2019-06-01T20:32:44.421Z,4.05
2019-06-01T20:35:13.897Z,4.20
2019-06-01T20:37:42.522Z,4.40
2019-06-01T20:40:12.153Z,3.98
2019-06-01T20:42:40.732Z,4.28
2019-06-01T20:45:09.855Z,4.45
2019-06-01T20:47:38.306Z,4.47
2019-06-01T20:50:30.224Z,4.08
2019-06-01T20:52:58.663Z,4.15
2019-06-01T20:55:27.092Z,4.72
2019-06-01T20:57:55.532Z,4.90
2019-06-01T21:00:23.946Z,4.85
2019-06-01T21:02:52.392Z,5.20
2019-06-01T21:05:21.994Z,5.62
2019-06-01T21:07:50.550Z,5.17
2019-06-01T21:10:20.348Z,4.90
2019-06-01T21:12:49.056Z,4.50
2019-06-01T21:15:17.667Z,4.30
2019-06-01T21:17:49.811Z,3.95
2019-06-01T21:20:23.887Z,4.20
2019-06-01T21:22:46.644Z,4.08
2019-06-01T21:25:16.592Z,4.28
2019-06-01T21:27:45.215Z,4.40
2019-06-01T21:30:16.060Z,4.40
2019-06-01T21:32:44.215Z,4.60
2019-06-01T21:35:12.784Z,5.60
2019-06-01T21:37:41.211Z,6.30
2019-06-01T21:40:10.779Z,5.78
2019-06-01T21:42:40.184Z,6.15
2019-06-01T21:45:09.999Z,6.83
2019-06-01T21:47:38.587Z,6.65
2019-06-01T21:50:07.559Z,7.25
2019-06-01T21:52:36.038Z,7.05
2019-06-01T21:55:06.944Z,5.95
2019-06-01T21:57:35.383Z,7.30
2019-06-01T22:00:18.587Z,7.70
2019-06-01T22:02:47.244Z,8.95
2019-06-01T22:05:16.767Z,8.38
2019-06-01T22:07:45.351Z,8.90
2019-06-01T22:10:13.856Z,7.97
2019-06-01T22:12:42.284Z,8.50
2019-06-01T22:15:10.893Z,8.20
2019-06-01T22:17:39.334Z,8.73
2019-06-01T22:20:07.919Z,8.80
2019-06-01T22:22:36.431Z,9.33
2019-06-01T22:25:06.686Z,8.80
2019-06-01T22:27:35.180Z,8.85
2019-06-01T22:30:05.559Z,9.55
2019-06-01T22:32:33.985Z,9.18
2019-06-01T22:35:03.183Z,9.73
2019-06-01T22:37:32.329Z,10.50
2019-06-01T22:40:00.927Z,8.28
2019-06-01T22:42:29.355Z,9.05
2019-06-01T22:44:57.801Z,9.73
2019-06-01T22:47:26.711Z,9.30
2019-06-01T22:49:55.285Z,9.63
2019-06-01T22:52:24.889Z,9.58
2019-06-01T22:54:53.592Z,9.33
2019-06-01T22:57:22.424Z,9.88
2019-06-01T22:59:51.081Z,9.55
2019-06-01T23:02:19.532Z,8.75
2019-06-01T23:04:47.961Z,9.60
2019-06-01T23:07:16.397Z,9.20
2019-06-01T23:09:44.828Z,8.95
2019-06-01T23:12:13.257Z,9.78
2019-06-01T23:14:42.428Z,9.05
2019-06-01T23:17:10.871Z,8.70
2019-06-01T23:19:39.300Z,8.83
2019-06-01T23:22:07.992Z,9.58
2019-06-01T23:24:36.420Z,8.75
2019-06-01T23:27:04.854Z,8.80
2019-06-01T23:29:33.288Z,7.67
2019-06-01T23:32:01.732Z,8.38
2019-06-01T23:34:30.652Z,8.48
2019-06-01T23:36:59.311Z,8.73
2019-06-01T23:39:28.790Z,7.80
2019-06-01T23:41:57.391Z,7.78
2019-06-01T23:44:29.329Z,7.90
2019-06-01T23:46:55.984Z,7.42
2019-06-01T23:49:25.113Z,7.53
2019-06-01T23:51:53.658Z,8.35
2019-06-01T23:54:23.375Z,7.72
2019-06-01T23:56:52.035Z,7.15
2019-06-01T23:59:20.467Z,7.75
